Corona Range LRC

2021-07-24 20:05:00

  • imperial
Date Time Air Temperature Relative Humidity Dewpoint Windchill Heat Index Wind Speed Wind Dir. Rain Solar Radiation Soil Temperature
2m 2m 3m 3m 10cm
US/Mountain F % F F F MPH deg in MJ/m^2 F
max avg avg
2021-07-23 20:20:00 63.2 74.2 54.9 63.2 63.2 2.1 3.7 2.4 224.2 311.5 0.00 0.0000000 72.0
2021-07-23 20:25:00 62.6 76.6 55.2 62.6 62.6 2.4 3.1 2.1 263.8 260.4 0.00 0.0000000 71.9
2021-07-23 20:30:00 62.4 77.1 55.1 62.4 62.4 3.0 3.7 3.3 295.2 277.6 0.00 0.0000000 71.9
2021-07-23 20:35:00 61.9 78.9 55.3 61.9 61.9 0.0 3.5 1.0 350.2 255.3 0.00 0.0000000 71.9
2021-07-23 20:40:00 61.3 81.8 55.7 61.3 61.3 2.2 3.3 1.6 95.9 104.2 0.00 0.0000000 71.8
2021-07-23 20:45:00 60.8 82.4 55.4 60.8 60.8 1.3 3.1 1.7 130.5 90.3 0.00 0.0000000 71.8
2021-07-23 20:50:00 60.8 79.6 54.4 60.8 60.8 2.4 2.6 0.9 309.5 167.7 0.00 0.0000000 71.7
2021-07-23 20:55:00 61.6 77.1 54.4 61.6 61.6 1.2 3.0 2.1 258.3 267.5 0.00 0.0000000 71.7
2021-07-23 21:00:00 61.4 78.7 54.7 61.4 61.4 3.5 3.7 1.1 248.9 265.5 0.00 0.0000000 71.7
2021-07-23 21:05:00 60.7 82.3 55.3 60.7 60.7 3.8 3.8 2.7 216.5 242.7 0.00 0.0000000 71.6
2021-07-23 21:10:00 60.1 84.8 55.5 60.1 60.1 3.8 4.2 3.4 163.4 234.7 0.00 0.0000000 71.6
2021-07-23 21:15:00 59.6 86.9 55.7 59.6 59.6 3.5 5.6 4.9 193.7 194.4 0.00 0.0000000 71.5
2021-07-23 21:20:00 59.5 86.3 55.4 59.5 59.5 2.4 4.2 3.4 132.8 134.4 0.00 0.0000000 71.5
2021-07-23 21:25:00 59.5 85.8 55.2 59.5 59.5 4.4 5.1 3.9 149.6 133.3 0.00 0.0000000 71.4
2021-07-23 21:30:00 59.3 86.4 55.2 59.3 59.3 4.4 5.3 4.4 94.9 114.3 0.00 0.0000000 71.3
2021-07-23 21:35:00 59.0 87.7 55.3 59.0 59.0 2.2 4.4 3.7 174.5 122.5 0.00 0.0000000 71.3
2021-07-23 21:40:00 59.2 79.1 52.7 59.2 59.2 5.3 6.2 3.5 158.8 116.3 0.00 0.0000000 71.2
2021-07-23 21:45:00 59.3 77.8 52.4 59.3 59.3 3.1 6.3 4.4 127.4 117.3 0.00 0.0000000 71.1
2021-07-23 21:50:00 58.8 79.1 52.4 58.8 58.8 1.9 4.2 2.6 226.2 141.7 0.00 0.0000000 71.1
2021-07-23 21:55:00 59.1 76.6 51.8 59.1 59.1 3.8 3.8 3.0 229.3 182.1 0.00 0.0000000 71.0
2021-07-23 22:00:00 59.4 76.8 52.1 59.4 59.4 3.1 3.8 3.4 185.5 178.6 0.00 0.0000000 70.9
2021-07-23 22:05:00 59.3 76.9 52.0 59.3 59.3 3.8 4.2 3.3 165.9 171.9 0.00 0.0000000 70.9
2021-07-23 22:10:00 59.0 78.2 52.2 59.0 59.0 3.0 4.0 2.9 181.2 187.2 0.00 0.0000000 70.8
2021-07-23 22:15:00 58.9 77.9 52.0 58.9 58.9 2.6 3.3 2.8 150.3 148.3 0.00 0.0000000 70.7
2021-07-23 22:20:00 59.1 77.4 52.0 59.1 59.1 3.3 4.4 3.5 211.3 179.2 0.00 0.0000000 70.6
2021-07-23 22:25:00 59.0 78.3 52.2 59.0 59.0 3.1 3.8 3.0 215.3 212.4 0.00 0.0000000 70.6
2021-07-23 22:30:00 58.9 78.5 52.2 58.9 58.9 1.9 3.1 2.4 219.2 211.6 0.00 0.0000000 70.5
2021-07-23 22:35:00 58.9 77.0 51.7 58.9 58.9 2.1 2.1 1.8 153.3 183.1 0.00 0.0000000 70.4
2021-07-23 22:40:00 59.2 75.5 51.4 59.2 59.2 2.4 2.8 2.4 218.9 217.8 0.00 0.0000000 70.4
2021-07-23 22:45:00 59.2 76.0 51.6 59.2 59.2 3.1 3.1 2.8 257.8 256.4 0.00 0.0000000 70.3
2021-07-23 22:50:00 59.0 75.1 51.1 59.0 59.0 0.8 3.1 2.1 266.6 271.6 0.00 0.0000000 70.2
2021-07-23 22:55:00 58.1 80.5 52.1 58.1 58.1 3.7 3.8 2.5 334.0 320.1 0.00 0.0000000 70.2
2021-07-23 23:00:00 56.8 87.8 53.2 56.8 56.8 2.6 5.1 4.1 339.1 324.8 0.00 0.0000000 70.1
2021-07-23 23:05:00 56.5 88.4 53.2 56.5 56.5 0.0 2.6 0.8 257.4 300.1 0.00 0.0000000 70.0
2021-07-23 23:10:00 56.5 88.9 53.3 56.5 56.5 0.0 2.2 0.6 253.8 156.9 0.00 0.0000000 70.0
2021-07-23 23:15:00 56.6 88.5 53.2 56.6 56.6 0.0 2.1 1.0 91.8 199.5 0.00 0.0000000 69.9
2021-07-23 23:20:00 56.4 88.0 52.9 56.4 56.4 0.0 1.2 0.1 310.4 137.5 0.00 0.0000000 69.8
2021-07-23 23:25:00 56.7 86.5 52.7 56.7 56.7 4.4 5.3 3.2 338.4 312.5 0.00 0.0000000 69.7
2021-07-23 23:30:00 56.7 86.2 52.6 56.7 56.7 4.2 4.7 4.0 321.6 324.0 0.00 0.0000000 69.7
2021-07-23 23:35:00 57.2 83.3 52.2 57.2 57.2 4.0 4.4 3.8 340.3 323.4 0.00 0.0000000 69.6
2021-07-23 23:40:00 57.5 83.8 52.6 57.5 57.5 4.0 4.2 3.5 304.1 303.2 0.00 0.0000000 69.5
2021-07-23 23:45:00 56.9 86.2 52.8 56.9 56.9 4.0 4.9 4.1 340.1 312.3 0.00 0.0000000 69.5
2021-07-23 23:50:00 56.5 87.8 52.9 56.5 56.5 3.8 5.1 3.9 329.7 309.8 0.00 0.0000000 69.4
2021-07-23 23:55:00 56.0 89.2 52.9 56.0 56.0 2.4 4.7 3.5 336.6 330.9 0.00 0.0000000 69.3
2021-07-24 00:00:00 56.5 86.2 52.5 56.5 56.5 4.2 5.1 3.8 252.7 310.0 0.00 0.0000000 69.2
2021-07-24 00:05:00 56.9 86.0 52.8 56.9 56.9 4.0 4.0 2.9 167.9 16.9 0.00 0.0000000 69.2
2021-07-24 00:10:00 58.1 79.1 51.6 58.1 58.1 2.8 4.0 2.8 316.6 254.9 0.00 0.0000395 69.1
2021-07-24 00:15:00 58.8 77.1 51.7 58.8 58.8 3.1 3.5 2.9 349.2 327.4 0.00 0.0000007 69.0
2021-07-24 00:20:00 59.1 76.1 51.6 59.1 59.1 1.7 3.3 2.3 4.2 346.1 0.00 0.0000000 69.0
2021-07-24 00:25:00 59.7 71.4 50.4 59.7 59.7 3.8 3.8 1.3 327.6 322.3 0.00 0.0000099 68.9
2021-07-24 00:30:00 60.5 71.6 51.3 60.5 60.5 1.7 3.3 2.2 266.7 263.9 0.00 0.0000000 68.8
2021-07-24 00:35:00 60.5 74.0 52.1 60.5 60.5 4.9 6.5 3.7 237.0 244.0 0.00 0.0000000 68.8
2021-07-24 00:40:00 61.0 72.5 52.1 61.0 61.0 6.0 9.7 6.6 236.8 216.7 0.00 0.0000693 68.7
2021-07-24 00:45:00 61.8 68.1 51.2 61.8 61.8 7.6 9.0 7.5 227.1 218.2 0.00 0.0000017 68.7
2021-07-24 00:50:00 62.5 65.2 50.6 62.5 62.5 7.4 10.3 8.1 222.9 242.7 0.00 0.0000007 68.6
2021-07-24 00:55:00 60.0 80.5 53.9 60.0 60.0 10.5 11.9 7.7 252.2 258.6 0.00 0.0000000 68.6
2021-07-24 01:00:00 58.6 85.0 54.1 58.6 58.6 8.7 9.9 7.4 282.4 266.7 0.00 0.0000000 68.5
2021-07-24 01:05:00 58.4 86.0 54.2 58.4 58.4 6.9 9.0 5.9 240.5 260.2 0.00 0.0000000 68.5
2021-07-24 01:10:00 58.3 86.3 54.2 58.3 58.3 6.3 8.3 6.6 284.3 275.3 0.00 0.0000000 68.5
2021-07-24 01:15:00 58.2 86.6 54.2 58.2 58.2 8.3 10.5 7.8 179.7 237.5 0.00 0.0000000 68.4
2021-07-24 01:20:00 58.1 86.7 54.2 58.1 58.1 7.2 10.3 8.5 287.6 243.5 0.00 0.0000000 68.4
2021-07-24 01:25:00 58.0 87.2 54.2 58.0 58.0 11.2 11.2 9.1 138.6 243.8 0.00 0.0000000 68.3
2021-07-24 01:30:00 58.0 87.6 54.3 58.0 58.0 8.3 11.9 8.8 222.9 229.9 0.00 0.0000000 68.3
2021-07-24 01:35:00 58.0 87.9 54.5 58.0 58.0 9.6 10.3 8.5 297.5 245.6 0.00 0.0000000 68.2
2021-07-24 01:40:00 58.1 87.5 54.4 58.1 58.1 10.5 12.1 9.1 252.7 198.5 0.00 0.0000000 68.2
2021-07-24 01:45:00 58.2 87.9 54.6 58.2 58.2 9.2 11.3 9.3 300.7 243.3 0.00 0.0000000 68.2
2021-07-24 01:50:00 58.0 88.6 54.6 58.0 58.0 10.3 11.5 9.4 268.8 252.1 0.00 0.0000000 68.1
2021-07-24 01:55:00 58.0 89.1 54.8 58.0 58.0 8.7 11.0 8.1 286.6 249.9 0.00 0.0000000 68.1
2021-07-24 02:00:00 58.0 88.6 54.6 58.0 58.0 9.2 10.3 7.9 260.5 254.8 0.00 0.0000000 68.1
2021-07-24 02:05:00 58.0 88.8 54.7 58.0 58.0 5.3 11.9 8.2 264.2 254.3 0.00 0.0000000 68.1
2021-07-24 02:10:00 57.8 89.3 54.7 57.8 57.8 8.7 8.8 6.9 156.7 259.6 0.00 0.0000000 68.0
2021-07-24 02:15:00 57.9 88.7 54.6 57.9 57.9 8.3 9.6 7.3 291.3 248.8 0.00 0.0000000 68.0
2021-07-24 02:20:00 58.0 87.7 54.3 58.0 58.0 7.8 12.8 9.0 191.2 267.6 0.00 0.0000000 67.9
2021-07-24 02:25:00 58.0 87.3 54.2 58.0 58.0 7.8 12.1 9.0 207.7 264.3 0.00 0.0000000 67.9
2021-07-24 02:30:00 57.9 87.9 54.4 57.9 57.9 6.0 8.1 6.1 266.0 265.7 0.00 0.0000000 67.9
2021-07-24 02:35:00 58.0 87.4 54.2 58.0 58.0 8.1 8.1 5.9 287.7 269.5 0.00 0.0000000 67.9
2021-07-24 02:40:00 58.2 86.1 54.1 58.2 58.2 6.3 8.3 6.1 274.0 273.4 0.00 0.0000000 67.8
2021-07-24 02:45:00 58.4 85.6 54.1 58.4 58.4 6.3 8.7 5.9 287.1 272.8 0.00 0.0000000 67.8
2021-07-24 02:50:00 58.6 84.0 53.8 58.6 58.6 6.3 7.6 6.1 257.6 255.0 0.00 0.0000000 67.7
2021-07-24 02:55:00 58.4 87.0 54.5 58.4 58.4 5.5 8.7 6.0 213.3 237.7 0.00 0.0000000 67.7
2021-07-24 03:00:00 58.1 88.3 54.7 58.1 58.1 5.5 7.2 5.6 236.3 226.7 0.00 0.0000000 67.7
2021-07-24 03:05:00 57.9 89.5 54.8 57.9 57.9 8.1 8.1 6.1 261.1 251.6 0.00 0.0000000 67.7
2021-07-24 03:10:00 57.6 90.2 54.8 57.6 57.6 5.5 8.7 6.8 277.3 262.7 0.00 0.0000000 67.6
2021-07-24 03:15:00 57.6 90.5 54.8 57.6 57.6 4.7 6.7 5.9 166.8 234.6 0.00 0.0000000 67.6
2021-07-24 03:20:00 57.6 90.6 54.9 57.6 57.6 4.9 6.3 5.2 120.7 221.4 0.00 0.0000000 67.7
2021-07-24 03:25:00 57.8 89.5 54.7 57.8 57.8 4.4 6.2 4.9 160.6 240.8 0.00 0.0000000 67.7
2021-07-24 03:30:00 57.9 89.7 54.9 57.9 57.9 5.1 6.2 5.0 180.8 197.7 0.00 0.0000000 67.7
2021-07-24 03:35:00 57.9 89.3 54.8 57.9 57.9 4.0 6.0 5.0 227.2 208.9 0.00 0.0000000 67.6
2021-07-24 03:40:00 58.2 88.1 54.7 58.2 58.2 4.0 5.5 4.7 248.1 222.8 0.00 0.0000000 67.6
2021-07-24 03:45:00 58.3 87.5 54.6 58.3 58.3 3.0 4.2 3.5 211.5 215.6 0.00 0.0000000 67.6
2021-07-24 03:50:00 58.4 88.2 54.9 58.4 58.4 3.0 3.3 2.9 250.0 206.3 0.00 0.0000000 67.6
2021-07-24 03:55:00 58.2 87.6 54.6 58.2 58.2 4.4 4.7 3.7 265.5 258.4 0.00 0.0000000 67.6
2021-07-24 04:00:00 58.6 84.8 54.0 58.6 58.6 5.8 5.8 5.0 267.0 257.6 0.00 0.0000000 67.5
2021-07-24 04:05:00 59.3 79.6 53.0 59.3 59.3 6.3 7.2 6.4 271.3 263.4 0.00 0.0000000 67.5
2021-07-24 04:10:00 59.5 82.9 54.2 59.5 59.5 4.2 7.4 6.0 281.7 263.0 0.00 0.0000000 67.5
2021-07-24 04:15:00 58.9 84.3 54.2 58.9 58.9 5.8 8.7 6.3 254.6 257.0 0.00 0.0000000 67.5
2021-07-24 04:20:00 58.8 81.9 53.3 58.8 58.8 6.2 7.6 6.4 270.4 268.2 0.00 0.0000000 67.4
2021-07-24 04:25:00 59.5 77.8 52.5 59.5 59.5 6.9 7.6 6.3 302.4 272.8 0.00 0.0000000 67.4
2021-07-24 04:30:00 59.7 76.9 52.5 59.7 59.7 6.7 8.0 6.5 282.3 266.6 0.00 0.0000000 67.4
2021-07-24 04:35:00 59.8 76.1 52.3 59.8 59.8 6.5 7.6 6.6 294.1 266.5 0.00 0.0000000 67.4
2021-07-24 04:40:00 59.4 79.4 53.0 59.4 59.4 5.5 6.5 5.6 271.7 268.6 0.00 0.0000000 67.4
2021-07-24 04:45:00 59.2 79.3 52.8 59.2 59.2 5.3 7.2 5.6 276.6 275.2 0.00 0.0000000 67.3
2021-07-24 04:50:00 59.3 78.4 52.6 59.3 59.3 6.0 6.3 5.3 272.8 272.7 0.00 0.0000000 67.3
2021-07-24 04:55:00 59.8 74.2 51.6 59.8 59.8 6.9 8.5 6.8 263.1 263.7 0.00 0.0000000 67.3
2021-07-24 05:00:00 59.8 76.0 52.3 59.8 59.8 7.1 7.6 6.6 267.0 254.1 0.00 0.0000000 67.3
2021-07-24 05:05:00 59.8 75.3 51.9 59.8 59.8 6.2 7.2 6.2 238.0 254.2 0.00 0.0000000 67.2
2021-07-24 05:10:00 59.9 74.7 51.8 59.9 59.9 6.0 7.8 6.2 276.9 267.7 0.00 0.0000000 67.2
2021-07-24 05:15:00 59.8 75.2 52.0 59.8 59.8 4.4 7.2 6.0 255.0 255.3 0.00 0.0000000 67.2
2021-07-24 05:20:00 59.6 75.6 51.8 59.6 59.6 5.6 7.4 6.0 270.9 258.6 0.00 0.0000000 67.2
2021-07-24 05:25:00 59.3 77.1 52.1 59.3 59.3 5.5 6.9 5.9 258.7 263.4 0.00 0.0000000 67.1
2021-07-24 05:30:00 59.0 78.0 52.1 59.0 59.0 5.8 7.4 5.9 282.3 263.4 0.00 0.0000000 67.1
2021-07-24 05:35:00 58.9 78.1 52.1 58.9 58.9 5.1 7.4 6.1 260.7 274.3 0.00 0.0000000 67.1
2021-07-24 05:40:00 58.7 79.4 52.4 58.7 58.7 5.6 7.2 5.7 304.1 265.8 0.00 0.0000000 67.0
2021-07-24 05:45:00 58.5 81.3 52.8 58.5 58.5 5.6 7.2 5.3 205.3 271.2 0.00 0.0000000 67.0
2021-07-24 05:50:00 58.2 82.3 52.9 58.2 58.2 4.0 7.1 5.1 282.3 275.4 0.00 0.0000000 67.0
2021-07-24 05:55:00 58.0 82.2 52.6 58.0 58.0 6.0 6.3 5.1 278.3 267.5 0.00 0.0000000 67.0
2021-07-24 06:00:00 58.0 82.5 52.7 58.0 58.0 4.7 7.2 5.5 214.1 260.6 0.00 0.0000000 67.0
2021-07-24 06:05:00 57.7 84.6 53.1 57.7 57.7 5.5 5.5 4.7 259.1 261.2 0.00 0.0000000 66.9
2021-07-24 06:10:00 57.7 83.6 52.8 57.7 57.7 6.3 6.7 5.1 269.6 259.4 0.00 0.0000461 66.9
2021-07-24 06:15:00 57.8 83.8 52.9 57.8 57.8 4.9 6.2 5.3 277.3 259.2 0.00 0.0008632 66.9
2021-07-24 06:20:00 58.0 81.3 52.3 58.0 58.0 5.3 6.2 5.3 263.4 260.5 0.00 0.0022970 66.8
2021-07-24 06:25:00 58.4 80.4 52.3 58.4 58.4 4.9 6.0 5.1 270.5 265.6 0.00 0.0036468 66.8
2021-07-24 06:30:00 58.5 80.2 52.4 58.5 58.5 3.7 5.8 4.1 258.3 257.7 0.00 0.0033271 66.8
2021-07-24 06:35:00 58.5 81.3 52.8 58.5 58.5 2.8 4.0 3.1 212.9 240.1 0.00 0.0017552 66.7
2021-07-24 06:40:00 58.1 83.7 53.2 58.1 58.1 2.6 3.0 2.3 201.0 188.8 0.00 0.0024478 66.7
2021-07-24 06:45:00 57.9 84.4 53.2 57.9 57.9 2.8 3.0 2.7 220.3 208.7 0.00 0.0037501 66.7
2021-07-24 06:50:00 57.9 85.2 53.5 57.9 57.9 3.5 3.5 3.1 213.4 227.6 0.00 0.0052732 66.7
2021-07-24 06:55:00 57.7 85.5 53.4 57.7 57.7 3.7 3.7 3.4 201.4 197.3 0.00 0.0072212 66.6
2021-07-24 07:00:00 57.6 87.2 53.8 57.6 57.6 3.1 4.2 3.5 226.1 213.4 0.00 0.0100528 66.6
2021-07-24 07:05:00 57.9 86.4 53.8 57.9 57.9 5.1 5.1 3.8 231.7 228.3 0.00 0.0118493 66.6
2021-07-24 07:10:00 58.1 85.3 53.7 58.1 58.1 3.8 4.9 4.3 231.2 227.3 0.00 0.0124035 66.6
2021-07-24 07:15:00 58.7 84.9 54.2 58.7 58.7 3.7 4.7 4.2 233.9 233.1 0.00 0.0126305 66.5
2021-07-24 07:20:00 59.0 83.1 53.8 59.0 59.0 4.0 4.6 4.0 241.0 235.7 0.00 0.0133295 66.5
2021-07-24 07:25:00 59.5 80.5 53.5 59.5 59.5 4.4 4.9 4.2 225.1 241.4 0.00 0.0155146 66.5
2021-07-24 07:30:00 59.7 82.2 54.3 59.7 59.7 4.0 4.6 3.8 244.7 229.1 0.00 0.0178987 66.5
2021-07-24 07:35:00 60.0 80.4 53.9 60.0 60.0 3.5 4.0 3.1 248.4 242.2 0.00 0.0198652 66.5
2021-07-24 07:40:00 60.5 79.7 54.2 60.5 60.5 2.6 3.5 2.7 267.7 260.0 0.00 0.0218595 66.5
2021-07-24 07:45:00 61.2 77.4 54.1 61.2 61.2 2.4 3.1 2.6 282.6 264.4 0.00 0.0238967 66.5
2021-07-24 07:50:00 61.7 74.2 53.4 61.7 61.7 3.1 3.8 2.9 229.3 252.1 0.00 0.0248400 66.5
2021-07-24 07:55:00 62.0 77.2 54.8 62.0 62.0 3.1 3.7 2.8 218.4 240.2 0.00 0.0253764 66.5
2021-07-24 08:00:00 62.2 75.4 54.3 62.2 62.2 4.0 4.7 3.7 242.1 229.0 0.00 0.0247384 66.5
2021-07-24 08:05:00 62.3 75.5 54.5 62.3 62.3 3.1 4.9 4.1 232.9 229.0 0.00 0.0246233 66.5
2021-07-24 08:10:00 62.5 74.1 54.2 62.5 62.5 3.5 5.8 4.2 247.4 243.3 0.00 0.0259643 66.5
2021-07-24 08:15:00 62.8 71.9 53.6 62.8 62.8 4.6 7.1 4.8 248.6 247.9 0.00 0.0274974 66.5
2021-07-24 08:20:00 62.8 72.2 53.7 62.8 62.8 5.3 6.3 5.1 243.5 253.6 0.00 0.0292205 66.6
2021-07-24 08:25:00 63.0 72.6 54.1 63.0 63.0 3.5 6.2 4.5 221.6 238.0 0.00 0.0313318 66.6
2021-07-24 08:30:00 63.3 69.8 53.3 63.3 63.3 4.0 4.6 3.5 247.0 240.2 0.00 0.0299577 66.6
2021-07-24 08:35:00 63.6 69.0 53.3 63.6 63.6 3.8 4.6 3.6 255.8 232.0 0.00 0.0313043 66.7
2021-07-24 08:40:00 63.7 69.6 53.6 63.7 63.7 4.4 6.0 4.5 234.9 236.9 0.00 0.0347949 66.7
2021-07-24 08:45:00 64.0 67.7 53.1 64.0 64.0 6.5 6.5 5.0 258.7 255.6 0.00 0.0422539 66.7
2021-07-24 08:50:00 64.1 68.3 53.5 64.1 64.1 5.8 6.7 5.6 210.1 246.9 0.00 0.0404705 66.7
2021-07-24 08:55:00 64.2 67.0 53.0 64.2 64.2 4.4 6.9 5.5 248.0 245.6 0.00 0.0427820 66.8
2021-07-24 09:00:00 64.5 66.0 52.9 64.5 64.5 5.6 6.3 5.2 270.1 262.4 0.00 0.0478664 66.8
2021-07-24 09:05:00 64.6 66.7 53.3 64.6 64.6 3.7 5.8 4.6 221.5 268.2 0.00 0.0490939 66.9
2021-07-24 09:10:00 64.8 64.7 52.6 64.8 64.8 4.4 6.2 4.5 248.4 258.7 0.00 0.0543931 66.9
2021-07-24 09:15:00 65.2 64.6 53.0 65.2 65.2 4.0 6.0 4.1 300.8 254.5 0.00 0.0615111 67.0
2021-07-24 09:20:00 65.6 63.9 53.0 65.6 65.6 3.5 6.7 5.0 304.3 266.8 0.00 0.0714651 67.0
2021-07-24 09:25:00 65.8 61.2 52.1 65.8 65.8 5.6 7.4 5.2 271.0 281.8 0.00 0.0731331 67.1
2021-07-24 09:30:00 66.0 59.4 51.4 66.0 66.0 6.9 6.9 4.9 308.8 290.3 0.00 0.0799718 67.2
2021-07-24 09:35:00 66.7 60.2 52.5 66.7 66.7 4.2 6.7 4.7 290.3 303.2 0.00 0.1184692 67.2
2021-07-24 09:40:00 67.6 65.5 55.6 67.6 67.6 3.3 4.2 3.1 214.3 320.9 0.00 0.1287649 67.3
2021-07-24 09:45:00 67.9 57.4 52.3 67.9 67.9 4.4 5.3 4.1 260.8 269.5 0.00 0.1168752 67.4
2021-07-24 09:50:00 68.2 58.2 53.0 68.2 68.2 3.1 6.0 3.6 267.6 263.2 0.00 0.1152357 67.5
2021-07-24 09:55:00 68.8 60.7 54.7 68.8 68.8 4.4 6.3 4.3 304.3 266.4 0.00 0.1424434 67.6
2021-07-24 10:00:00 68.7 59.5 54.0 68.7 68.7 5.8 6.5 4.3 175.9 278.8 0.00 0.1304889 67.7
2021-07-24 10:05:00 69.3 56.8 53.3 69.3 69.3 4.6 6.0 4.3 222.1 278.7 0.00 0.1504286 67.8
2021-07-24 10:10:00 69.6 57.4 53.9 69.6 69.6 4.6 5.6 4.2 277.6 243.5 0.00 0.1526280 67.9
2021-07-24 10:15:00 70.2 54.5 53.0 70.2 70.2 2.8 6.7 4.2 298.9 277.4 0.00 0.1572540 68.1
2021-07-24 10:20:00 70.6 59.8 56.0 70.6 70.6 3.3 5.5 3.1 188.8 262.8 0.00 0.1544215 68.3
2021-07-24 10:25:00 70.6 54.9 53.7 70.6 70.6 5.3 6.7 4.2 320.4 267.5 0.00 0.1562256 68.5
2021-07-24 10:30:00 70.6 55.2 53.8 70.6 70.6 4.2 5.5 4.1 344.8 315.6 0.00 0.1586214 68.7
2021-07-24 10:35:00 71.3 52.0 52.8 71.3 71.3 4.0 6.3 3.8 253.7 292.8 0.00 0.1604244 68.9
2021-07-24 10:40:00 71.7 53.5 53.9 71.7 71.7 2.6 5.5 3.4 254.9 258.6 0.00 0.1590841 69.1
2021-07-24 10:45:00 72.9 52.0 54.2 72.9 72.9 5.1 5.8 2.9 341.4 300.9 0.00 0.1615260 69.4
2021-07-24 10:50:00 72.6 48.9 52.3 72.6 72.6 6.5 7.6 5.7 274.0 269.9 0.00 0.1623665 69.6
2021-07-24 10:55:00 72.2 48.6 51.8 72.2 72.2 4.2 6.9 4.8 224.8 232.5 0.00 0.1071799 69.9
2021-07-24 11:00:00 72.1 48.7 51.7 72.1 72.1 4.7 6.3 4.1 218.8 203.6 0.00 0.0980085 70.1
2021-07-24 11:05:00 72.7 46.3 50.9 72.7 72.7 7.6 10.3 7.1 227.3 199.7 0.00 0.1677113 70.4
2021-07-24 11:10:00 73.0 53.1 54.9 73.0 73.0 7.6 9.9 8.0 228.3 197.7 0.00 0.1739954 70.7
2021-07-24 11:15:00 72.8 46.0 50.8 72.8 72.8 7.1 9.6 7.0 196.2 208.3 0.00 0.1726379 70.9
2021-07-24 11:20:00 73.3 46.3 51.5 73.3 73.3 5.8 7.4 4.8 163.6 199.3 0.00 0.1739479 71.2
2021-07-24 11:25:00 73.5 47.9 52.6 73.5 73.5 5.8 11.7 7.5 70.2 143.7 0.00 0.1691010 71.4
2021-07-24 11:30:00 73.4 47.2 52.0 73.4 73.4 8.7 13.3 9.9 220.4 181.2 0.00 0.1718649 71.7
2021-07-24 11:35:00 73.6 44.8 50.8 73.6 73.6 5.6 11.3 7.0 176.6 170.7 0.00 0.1721818 71.9
2021-07-24 11:40:00 73.7 47.0 52.2 73.7 73.7 7.1 8.3 6.6 188.9 162.7 0.00 0.1733026 72.2
2021-07-24 11:45:00 73.9 42.1 49.4 73.9 73.9 9.4 11.7 8.0 221.9 201.1 0.00 0.1728829 72.4
2021-07-24 11:50:00 74.4 46.8 52.8 74.4 74.4 11.0 12.8 8.6 192.9 222.8 0.00 0.1738576 72.6
2021-07-24 11:55:00 74.2 46.9 52.6 74.2 74.2 11.5 11.5 8.6 246.6 229.8 0.00 0.1570144 72.9
2021-07-24 12:00:00 73.7 45.0 51.0 73.7 73.7 10.8 13.3 10.4 231.8 220.7 0.00 0.1691974 73.1
2021-07-24 12:05:00 73.9 46.5 52.1 73.9 73.9 9.4 12.8 9.1 228.1 214.4 0.00 0.1765278 73.3
2021-07-24 12:10:00 74.1 45.3 51.6 74.1 74.1 9.6 13.7 8.8 251.9 240.4 0.00 0.1767735 73.5
2021-07-24 12:15:00 74.6 46.4 52.7 74.6 74.6 4.6 13.1 9.4 250.6 221.9 0.00 0.1767652 73.8
2021-07-24 12:20:00 75.1 44.4 52.0 75.1 75.1 7.1 9.7 6.6 231.3 204.1 0.00 0.1767499 74.0
2021-07-24 12:25:00 74.6 43.1 50.7 74.6 74.6 10.6 11.2 9.2 210.9 193.9 0.00 0.1768423 74.2
2021-07-24 12:30:00 74.4 44.6 51.5 74.4 74.4 8.7 12.2 9.1 147.3 197.5 0.00 0.1775982 74.4
2021-07-24 12:35:00 74.5 45.7 52.2 74.5 74.5 4.4 11.7 7.5 221.5 201.4 0.00 0.1787336 74.6
2021-07-24 12:40:00 74.6 49.3 54.4 74.6 74.6 5.5 14.4 9.5 262.2 217.4 0.00 0.1794028 74.9
2021-07-24 12:45:00 74.8 49.4 54.6 74.8 74.8 4.9 11.9 7.2 165.1 212.7 0.00 0.1799066 75.1
2021-07-24 12:50:00 75.5 42.8 51.3 75.5 75.5 10.5 11.7 8.5 214.6 205.9 0.00 0.1800774 75.3
2021-07-24 12:55:00 75.7 41.2 50.5 75.7 75.7 6.5 14.4 8.9 189.9 184.5 0.00 0.1807918 75.5
2021-07-24 13:00:00 75.6 43.5 51.9 75.6 75.6 11.0 12.6 8.9 198.4 190.9 0.00 0.1809118 75.7
2021-07-24 13:05:00 75.5 46.7 53.7 75.5 75.5 11.9 14.0 10.0 251.4 181.0 0.00 0.1812093 75.8
2021-07-24 13:10:00 75.5 42.5 51.2 75.5 75.5 7.8 13.9 9.2 257.4 220.0 0.00 0.1811828 76.0
2021-07-24 13:15:00 76.2 44.5 53.0 76.2 76.2 9.4 13.9 9.5 208.5 203.4 0.00 0.1813497 76.2
2021-07-24 13:20:00 76.4 35.2 46.8 76.4 76.4 8.7 15.5 9.5 223.4 204.4 0.00 0.1815077 76.4
2021-07-24 13:25:00 75.8 42.6 51.5 75.8 75.8 6.3 12.6 9.1 234.8 196.7 0.00 0.1805006 76.6
2021-07-24 13:30:00 76.7 37.6 48.9 76.7 76.7 13.7 13.7 8.1 222.3 198.7 0.00 0.1805857 76.7
2021-07-24 13:35:00 76.2 43.8 52.6 76.2 76.2 10.5 14.9 9.9 209.2 204.7 0.00 0.1796653 76.9
2021-07-24 13:40:00 76.4 43.9 52.8 76.4 76.4 6.9 12.2 8.8 209.9 178.1 0.00 0.1800207 77.1
2021-07-24 13:45:00 76.9 38.4 49.6 76.9 76.9 14.4 15.6 10.2 206.7 204.9 0.00 0.1796944 77.2
2021-07-24 13:50:00 76.2 45.8 53.8 76.2 76.2 6.2 10.8 8.0 125.9 181.5 0.00 0.1789158 77.3
2021-07-24 13:55:00 76.7 46.2 54.5 76.7 76.7 6.7 10.5 7.6 221.2 198.6 0.00 0.1787997 77.5
2021-07-24 14:00:00 76.8 42.8 52.5 76.8 76.8 12.8 16.7 10.7 200.3 216.9 0.00 0.1777589 77.7
2021-07-24 14:05:00 77.0 43.6 53.2 77.0 77.0 6.9 11.5 8.2 139.6 217.7 0.00 0.1775679 77.8
2021-07-24 14:10:00 76.9 43.0 52.8 76.9 76.9 12.2 15.1 10.2 197.9 209.8 0.00 0.1763031 77.9
2021-07-24 14:15:00 77.2 38.9 50.3 77.2 77.2 4.7 14.9 8.3 256.8 198.1 0.00 0.1761622 78.1
2021-07-24 14:20:00 77.2 42.8 52.8 77.2 77.2 8.0 14.2 9.8 199.9 213.8 0.00 0.1753536 78.2
2021-07-24 14:25:00 77.3 38.4 50.0 77.3 77.3 8.1 13.1 7.8 192.9 186.0 0.00 0.1743921 78.4
2021-07-24 14:30:00 77.2 40.1 51.1 77.2 77.2 10.5 17.6 10.2 221.5 203.1 0.00 0.1744663 78.5
2021-07-24 14:35:00 77.6 38.5 50.4 77.6 77.6 8.5 15.3 10.3 228.2 223.0 0.00 0.1721908 78.7
2021-07-24 14:40:00 78.2 37.8 50.3 78.2 78.2 12.8 15.5 10.3 107.9 180.4 0.00 0.1667718 78.8
2021-07-24 14:45:00 77.2 39.8 50.9 77.2 77.2 6.9 16.0 11.2 142.9 192.1 0.00 0.1640735 79.0
2021-07-24 14:50:00 77.4 35.1 47.7 77.4 77.4 12.4 13.3 10.1 138.0 189.6 0.00 0.1577703 79.1
2021-07-24 14:55:00 77.0 35.8 47.9 77.0 77.0 9.9 12.2 9.3 144.9 181.7 0.00 0.1466048 79.3
2021-07-24 15:00:00 77.3 36.0 48.2 77.3 77.3 6.3 10.8 7.3 214.0 199.0 0.00 0.1311912 79.4
2021-07-24 15:05:00 77.2 37.2 49.1 77.2 77.2 7.4 13.0 9.8 218.0 184.3 0.00 0.1346284 79.6
2021-07-24 15:10:00 77.7 37.1 49.4 77.7 77.7 8.0 12.8 9.4 204.4 206.5 0.00 0.1441891 79.7
2021-07-24 15:15:00 77.1 38.4 49.8 77.1 77.1 11.7 15.3 10.6 219.8 225.1 0.00 0.1228079 79.8
2021-07-24 15:20:00 77.0 37.3 49.0 77.0 77.0 10.5 13.7 10.3 213.2 215.8 0.00 0.1137905 80.0
2021-07-24 15:25:00 77.1 36.4 48.4 77.1 77.1 12.1 16.4 11.3 189.5 191.0 0.00 0.1289424 80.1
2021-07-24 15:30:00 76.6 40.1 50.6 76.6 76.6 12.4 15.1 10.2 195.9 196.4 0.00 0.0994202 80.2
2021-07-24 15:35:00 76.7 39.5 50.3 76.7 76.7 10.6 14.6 10.1 173.4 204.7 0.00 0.1000029 80.3
2021-07-24 15:40:00 76.7 38.5 49.5 76.7 76.7 14.9 14.9 11.7 214.3 195.1 0.00 0.0954894 80.4
2021-07-24 15:45:00 76.1 42.6 51.7 76.1 76.1 8.5 15.1 11.3 213.8 195.3 0.00 0.0782664 80.5
2021-07-24 15:50:00 75.9 39.9 49.8 75.9 75.9 9.4 13.5 10.2 178.3 210.4 0.00 0.0487286 80.6
2021-07-24 15:55:00 75.6 43.7 52.0 75.6 75.6 5.6 11.7 8.5 135.9 195.2 0.00 0.0307708 80.7
2021-07-24 16:00:00 75.3 42.2 50.8 75.3 75.3 9.0 11.9 9.5 185.3 182.2 0.00 0.0316817 80.7
2021-07-24 16:05:00 75.3 38.9 48.5 75.3 75.3 7.2 10.3 8.1 186.5 181.2 0.00 0.0360121 80.8
2021-07-24 16:10:00 75.3 43.6 51.6 75.3 75.3 8.0 11.9 8.8 185.5 164.3 0.00 0.0371267 80.8
2021-07-24 16:15:00 75.5 43.2 51.6 75.5 75.5 4.2 9.2 6.9 166.0 172.2 0.00 0.0516566 80.9
2021-07-24 16:20:00 76.4 41.2 51.1 76.4 76.4 9.7 9.7 6.7 146.9 145.0 0.00 0.1076683 80.9
2021-07-24 16:25:00 77.9 41.3 52.5 77.9 77.9 4.9 9.6 6.9 176.1 160.0 0.00 0.1469460 80.9
2021-07-24 16:30:00 77.9 42.2 53.1 77.9 77.9 4.4 8.1 5.6 193.4 176.4 0.00 0.1089859 80.8
2021-07-24 16:35:00 78.4 38.6 51.0 78.4 78.4 9.4 9.7 7.2 165.3 152.4 0.00 0.1172884 80.8
2021-07-24 16:40:00 78.2 38.7 51.0 78.2 78.2 6.5 10.1 7.2 155.1 159.4 0.00 0.0985799 80.8
2021-07-24 16:45:00 77.8 39.6 51.3 77.8 77.8 12.6 12.6 6.6 217.4 179.9 0.00 0.0924645 80.7
2021-07-24 16:50:00 78.0 44.8 54.8 78.0 78.0 7.1 13.0 10.2 214.7 196.7 0.00 0.1462260 80.7
2021-07-24 16:55:00 78.0 44.1 54.4 78.0 78.0 7.4 14.0 10.5 215.7 222.1 0.00 0.1296503 80.7
2021-07-24 17:00:00 77.7 42.8 53.3 77.7 77.7 9.6 11.7 7.8 189.2 195.0 0.00 0.0871086 80.7
2021-07-24 17:05:00 76.9 44.0 53.4 76.9 76.9 8.7 13.0 8.7 147.8 164.5 0.00 0.0592729 80.7
2021-07-24 17:10:00 76.1 45.2 53.3 76.1 76.1 9.0 9.6 6.5 173.0 191.0 0.00 0.0191920 80.7
2021-07-24 17:15:00 73.7 58.7 58.3 73.7 73.7 9.9 11.0 8.2 99.7 131.2 0.00 0.0110329 80.7
2021-07-24 17:20:00 71.5 63.6 58.5 71.5 71.5 11.9 16.9 10.5 11.4 120.4 0.00 0.0122707 80.7
2021-07-24 17:25:00 68.3 68.0 57.3 68.3 68.3 9.7 13.9 11.3 142.8 136.1 0.02 0.0282188 80.7
2021-07-24 17:30:00 69.1 59.6 54.5 69.1 69.1 4.0 13.5 9.0 92.1 96.7 0.03 0.0333219 80.7
2021-07-24 17:35:00 68.2 75.2 60.1 68.2 68.2 6.2 6.5 4.7 137.7 105.1 0.01 0.0240581 80.7
2021-07-24 17:40:00 67.0 75.5 59.0 67.0 67.0 5.6 11.0 7.7 115.0 107.4 0.00 0.0190280 80.7
2021-07-24 17:45:00 67.2 74.1 58.7 67.2 67.2 4.9 9.2 6.7 121.2 99.9 0.00 0.0205328 80.6
2021-07-24 17:50:00 67.2 73.0 58.3 67.2 67.2 10.3 12.2 7.2 92.0 113.8 0.00 0.0254005 80.6
2021-07-24 17:55:00 66.9 75.5 58.9 66.9 66.9 5.8 12.1 6.7 63.0 108.6 0.00 0.0327063 80.5
2021-07-24 18:00:00 67.1 76.9 59.6 67.1 67.1 7.2 11.9 8.2 139.3 127.1 0.00 0.0593764 80.4
2021-07-24 18:05:00 66.6 79.4 60.0 66.6 66.6 8.0 12.1 8.5 118.5 121.3 0.00 0.0545193 80.3
2021-07-24 18:10:00 67.2 76.9 59.7 67.2 67.2 6.3 10.3 7.1 93.5 115.2 0.00 0.0635047 80.1
2021-07-24 18:15:00 68.0 71.6 58.5 68.0 68.0 8.1 10.1 7.0 40.7 102.1 0.00 0.0677619 80.0
2021-07-24 18:20:00 67.9 73.6 59.1 67.9 67.9 6.7 8.8 7.4 122.9 100.6 0.00 0.0512996 79.9
2021-07-24 18:25:00 68.2 71.9 58.8 68.2 68.2 6.5 9.4 6.8 137.6 100.4 0.00 0.0484916 79.8
2021-07-24 18:30:00 68.6 73.7 59.8 68.6 68.6 6.5 7.2 5.7 57.0 103.1 0.00 0.0595874 79.6
2021-07-24 18:35:00 69.0 69.6 58.6 69.0 69.0 6.0 7.1 5.4 109.5 99.7 0.00 0.0641779 79.5
2021-07-24 18:40:00 68.6 70.8 58.8 68.6 68.6 3.8 6.2 4.3 120.5 100.8 0.00 0.0578747 79.4
2021-07-24 18:45:00 69.0 71.3 59.3 69.0 69.0 2.2 3.5 2.5 184.1 145.6 0.00 0.0497142 79.3
2021-07-24 18:50:00 70.0 65.1 57.8 70.0 70.0 1.5 2.8 1.3 345.7 84.7 0.00 0.0431799 79.1
2021-07-24 18:55:00 70.6 62.5 57.1 70.6 70.6 1.7 2.4 1.5 114.4 346.1 0.00 0.0377673 79.0
2021-07-24 19:00:00 70.6 63.3 57.5 70.6 70.6 1.3 2.4 1.6 59.3 67.8 0.00 0.0351602 78.9
2021-07-24 19:05:00 70.8 62.7 57.5 70.8 70.8 2.8 4.9 2.9 86.4 108.9 0.00 0.0415287 78.8
2021-07-24 19:10:00 70.5 64.8 58.1 70.5 70.5 3.3 3.7 2.3 181.6 115.7 0.00 0.0265735 78.7
2021-07-24 19:15:00 69.9 66.2 58.1 69.9 69.9 3.5 4.9 3.7 121.0 131.2 0.00 0.0228135 78.7
2021-07-24 19:20:00 70.1 63.9 57.3 70.1 70.1 4.2 4.4 3.7 116.3 130.0 0.00 0.0256644 78.6
2021-07-24 19:25:00 70.2 62.3 56.7 70.2 70.2 3.0 4.4 3.1 178.9 122.3 0.00 0.0190933 78.5
2021-07-24 19:30:00 70.1 62.8 56.8 70.1 70.1 3.5 4.0 3.3 138.9 144.8 0.00 0.0113160 78.5
2021-07-24 19:35:00 69.8 63.2 56.7 69.8 69.8 2.2 4.4 3.2 67.2 124.8 0.00 0.0091095 78.4
2021-07-24 19:40:00 69.7 65.1 57.5 69.7 69.7 2.4 3.0 1.9 156.1 150.5 0.00 0.0070858 78.3
2021-07-24 19:45:00 69.4 66.7 57.8 69.4 69.4 2.4 2.6 2.3 88.9 154.2 0.00 0.0053233 78.2
2021-07-24 19:50:00 69.2 65.3 57.0 69.2 69.2 2.6 2.8 2.5 144.6 172.4 0.00 0.0044114 78.1
2021-07-24 19:55:00 69.1 69.5 58.7 69.1 69.1 2.1 2.6 2.3 176.9 155.7 0.00 0.0034873 78.0
2021-07-24 20:00:00 68.9 70.0 58.7 68.9 68.9 2.4 2.4 2.1 179.4 171.4 0.00 0.0023810 77.9
2021-07-24 20:05:00 69.0 71.4 59.3 69.0 69.0 1.5 2.8 1.7 182.3 185.2 0.00 0.0010362 77.8

Data is courtesy of the NM Climate Center. DO NOT USE IN LEGAL PROCEEDINGS.